sensor_id;sensor_type;location;lat;lon;timestamp;P1;durP1;ratioP1;P2;durP2;ratioP2
76292;SDS011;67256;51.154;4.164;2023-11-19T00:01:40;12.23;;;3.67;;
76292;SDS011;67256;51.154;4.164;2023-11-19T00:04:06;15.50;;;4.65;;
76292;SDS011;67256;51.154;4.164;2023-11-19T00:06:33;16.33;;;4.03;;
76292;SDS011;67256;51.154;4.164;2023-11-19T00:08:59;12.27;;;4.03;;
76292;SDS011;67256;51.154;4.164;2023-11-19T00:11:25;15.27;;;4.47;;
76292;SDS011;67256;51.154;4.164;2023-11-19T00:13:51;20.10;;;6.57;;
76292;SDS011;67256;51.154;4.164;2023-11-19T00:16:16;15.48;;;4.30;;
76292;SDS011;67256;51.154;4.164;2023-11-19T00:18:42;17.92;;;3.90;;
76292;SDS011;67256;51.154;4.164;2023-11-19T00:21:08;20.65;;;4.53;;
76292;SDS011;67256;51.154;4.164;2023-11-19T00:23:35;20.83;;;3.80;;
76292;SDS011;67256;51.154;4.164;2023-11-19T00:26:00;17.90;;;3.67;;
76292;SDS011;67256;51.154;4.164;2023-11-19T00:28:26;19.30;;;5.45;;
76292;SDS011;67256;51.154;4.164;2023-11-19T00:30:52;13.13;;;3.80;;
76292;SDS011;67256;51.154;4.164;2023-11-19T00:33:18;26.45;;;4.95;;
76292;SDS011;67256;51.154;4.164;2023-11-19T00:35:44;14.07;;;4.03;;
76292;SDS011;67256;51.154;4.164;2023-11-19T00:38:10;20.75;;;4.03;;
76292;SDS011;67256;51.154;4.164;2023-11-19T00:40:36;23.73;;;4.63;;
76292;SDS011;67256;51.154;4.164;2023-11-19T00:43:01;22.67;;;4.53;;
76292;SDS011;67256;51.154;4.164;2023-11-19T00:45:27;24.85;;;4.07;;
76292;SDS011;67256;51.154;4.164;2023-11-19T00:47:54;22.83;;;3.83;;
76292;SDS011;67256;51.154;4.164;2023-11-19T00:50:20;21.80;;;3.83;;
76292;SDS011;67256;51.154;4.164;2023-11-19T00:52:47;14.63;;;3.95;;
76292;SDS011;67256;51.154;4.164;2023-11-19T00:55:13;20.75;;;3.67;;
76292;SDS011;67256;51.154;4.164;2023-11-19T00:57:39;25.35;;;5.70;;
76292;SDS011;67256;51.154;4.164;2023-11-19T01:00:05;17.45;;;3.80;;
76292;SDS011;67256;51.154;4.164;2023-11-19T01:02:43;22.80;;;4.88;;
76292;SDS011;67256;51.154;4.164;2023-11-19T01:05:11;29.20;;;5.05;;
76292;SDS011;67256;51.154;4.164;2023-11-19T01:07:39;23.88;;;4.82;;
76292;SDS011;67256;51.154;4.164;2023-11-19T01:10:05;34.40;;;4.47;;
76292;SDS011;67256;51.154;4.164;2023-11-19T01:12:33;28.33;;;6.28;;
76292;SDS011;67256;51.154;4.164;2023-11-19T01:14:59;36.15;;;6.00;;
76292;SDS011;67256;51.154;4.164;2023-11-19T01:17:26;32.13;;;5.50;;
76292;SDS011;67256;51.154;4.164;2023-11-19T01:19:51;29.73;;;5.10;;
76292;SDS011;67256;51.154;4.164;2023-11-19T01:22:17;29.02;;;5.72;;
76292;SDS011;67256;51.154;4.164;2023-11-19T01:24:44;29.33;;;7.40;;
76292;SDS011;67256;51.154;4.164;2023-11-19T01:27:09;27.58;;;5.65;;
76292;SDS011;67256;51.154;4.164;2023-11-19T01:29:35;30.25;;;5.43;;
76292;SDS011;67256;51.154;4.164;2023-11-19T01:32:03;33.25;;;4.95;;
76292;SDS011;67256;51.154;4.164;2023-11-19T01:34:29;33.90;;;5.28;;
76292;SDS011;67256;51.154;4.164;2023-11-19T01:36:55;27.95;;;4.97;;
76292;SDS011;67256;51.154;4.164;2023-11-19T01:39:21;32.65;;;5.07;;
76292;SDS011;67256;51.154;4.164;2023-11-19T01:41:46;32.05;;;6.22;;
76292;SDS011;67256;51.154;4.164;2023-11-19T01:44:12;27.88;;;6.70;;
76292;SDS011;67256;51.154;4.164;2023-11-19T01:46:39;29.55;;;5.10;;
76292;SDS011;67256;51.154;4.164;2023-11-19T01:49:06;35.30;;;6.05;;
76292;SDS011;67256;51.154;4.164;2023-11-19T01:51:34;29.23;;;5.97;;
76292;SDS011;67256;51.154;4.164;2023-11-19T01:54:01;38.25;;;5.68;;
76292;SDS011;67256;51.154;4.164;2023-11-19T01:56:27;38.53;;;6.60;;
76292;SDS011;67256;51.154;4.164;2023-11-19T01:58:53;33.05;;;5.53;;
76292;SDS011;67256;51.154;4.164;2023-11-19T02:01:20;31.27;;;5.95;;
76292;SDS011;67256;51.154;4.164;2023-11-19T02:03:46;30.05;;;6.03;;
76292;SDS011;67256;51.154;4.164;2023-11-19T02:06:13;27.92;;;6.05;;
76292;SDS011;67256;51.154;4.164;2023-11-19T02:08:40;42.55;;;6.22;;
76292;SDS011;67256;51.154;4.164;2023-11-19T02:11:06;38.10;;;6.30;;
76292;SDS011;67256;51.154;4.164;2023-11-19T02:13:32;39.20;;;6.45;;
76292;SDS011;67256;51.154;4.164;2023-11-19T02:16:01;31.60;;;5.82;;
76292;SDS011;67256;51.154;4.164;2023-11-19T02:18:27;30.77;;;6.45;;
76292;SDS011;67256;51.154;4.164;2023-11-19T02:20:53;39.65;;;8.15;;
76292;SDS011;67256;51.154;4.164;2023-11-19T02:23:20;37.15;;;6.45;;
76292;SDS011;67256;51.154;4.164;2023-11-19T02:25:47;34.50;;;5.20;;
76292;SDS011;67256;51.154;4.164;2023-11-19T02:30:43;49.03;;;5.97;;
76292;SDS011;67256;51.154;4.164;2023-11-19T02:33:09;46.80;;;7.70;;
76292;SDS011;67256;51.154;4.164;2023-11-19T02:35:35;40.95;;;6.68;;
76292;SDS011;67256;51.154;4.164;2023-11-19T02:38:01;39.72;;;5.53;;
76292;SDS011;67256;51.154;4.164;2023-11-19T02:40:31;38.80;;;7.00;;
76292;SDS011;67256;51.154;4.164;2023-11-19T02:42:57;50.72;;;7.75;;
76292;SDS011;67256;51.154;4.164;2023-11-19T02:45:24;43.25;;;7.25;;
76292;SDS011;67256;51.154;4.164;2023-11-19T02:47:51;36.28;;;6.65;;
76292;SDS011;67256;51.154;4.164;2023-11-19T02:50:18;43.17;;;6.38;;
76292;SDS011;67256;51.154;4.164;2023-11-19T02:52:50;33.40;;;6.13;;
76292;SDS011;67256;51.154;4.164;2023-11-19T02:55:18;39.35;;;6.55;;
76292;SDS011;67256;51.154;4.164;2023-11-19T02:57:45;34.78;;;5.78;;
76292;SDS011;67256;51.154;4.164;2023-11-19T03:00:18;40.72;;;5.93;;
76292;SDS011;67256;51.154;4.164;2023-11-19T03:02:48;36.65;;;7.10;;
76292;SDS011;67256;51.154;4.164;2023-11-19T03:05:23;35.95;;;6.38;;
76292;SDS011;67256;51.154;4.164;2023-11-19T03:07:50;33.22;;;7.30;;
76292;SDS011;67256;51.154;4.164;2023-11-19T03:10:15;36.65;;;7.03;;
76292;SDS011;67256;51.154;4.164;2023-11-19T03:12:43;41.88;;;6.90;;
76292;SDS011;67256;51.154;4.164;2023-11-19T03:15:10;35.53;;;5.97;;
76292;SDS011;67256;51.154;4.164;2023-11-19T03:17:39;38.88;;;6.43;;
76292;SDS011;67256;51.154;4.164;2023-11-19T03:20:07;40.90;;;6.68;;
76292;SDS011;67256;51.154;4.164;2023-11-19T03:22:40;41.55;;;6.93;;
76292;SDS011;67256;51.154;4.164;2023-11-19T03:25:12;36.85;;;6.72;;
76292;SDS011;67256;51.154;4.164;2023-11-19T03:27:38;31.35;;;7.60;;
76292;SDS011;67256;51.154;4.164;2023-11-19T03:30:06;32.75;;;6.88;;
76292;SDS011;67256;51.154;4.164;2023-11-19T03:32:36;37.20;;;6.78;;
76292;SDS011;67256;51.154;4.164;2023-11-19T03:35:03;33.65;;;7.15;;
76292;SDS011;67256;51.154;4.164;2023-11-19T03:37:32;38.20;;;6.63;;
76292;SDS011;67256;51.154;4.164;2023-11-19T03:39:58;35.40;;;8.10;;
76292;SDS011;67256;51.154;4.164;2023-11-19T03:42:28;41.00;;;6.60;;
76292;SDS011;67256;51.154;4.164;2023-11-19T03:44:57;38.78;;;6.60;;
76292;SDS011;67256;51.154;4.164;2023-11-19T03:47:23;31.25;;;6.22;;
76292;SDS011;67256;51.154;4.164;2023-11-19T03:49:49;36.80;;;6.45;;
76292;SDS011;67256;51.154;4.164;2023-11-19T03:52:16;38.58;;;6.82;;
76292;SDS011;67256;51.154;4.164;2023-11-19T03:54:42;35.70;;;6.65;;
76292;SDS011;67256;51.154;4.164;2023-11-19T03:57:08;36.80;;;6.10;;
76292;SDS011;67256;51.154;4.164;2023-11-19T03:59:37;35.03;;;7.45;;
76292;SDS011;67256;51.154;4.164;2023-11-19T04:02:03;47.58;;;7.13;;
76292;SDS011;67256;51.154;4.164;2023-11-19T04:04:29;31.63;;;6.28;;
76292;SDS011;67256;51.154;4.164;2023-11-19T04:06:56;56.47;;;8.65;;
76292;SDS011;67256;51.154;4.164;2023-11-19T04:09:23;40.75;;;7.20;;
76292;SDS011;67256;51.154;4.164;2023-11-19T04:11:48;36.60;;;7.40;;
76292;SDS011;67256;51.154;4.164;2023-11-19T04:14:14;29.60;;;7.45;;
76292;SDS011;67256;51.154;4.164;2023-11-19T04:16:43;47.58;;;7.55;;
76292;SDS011;67256;51.154;4.164;2023-11-19T04:19:09;39.13;;;7.60;;
76292;SDS011;67256;51.154;4.164;2023-11-19T04:21:36;39.40;;;6.93;;
76292;SDS011;67256;51.154;4.164;2023-11-19T04:24:01;35.10;;;6.60;;
76292;SDS011;67256;51.154;4.164;2023-11-19T04:26:27;39.40;;;7.38;;
76292;SDS011;67256;51.154;4.164;2023-11-19T04:28:53;49.92;;;7.97;;
76292;SDS011;67256;51.154;4.164;2023-11-19T04:31:19;35.72;;;6.10;;
76292;SDS011;67256;51.154;4.164;2023-11-19T04:33:45;34.40;;;7.32;;
76292;SDS011;67256;51.154;4.164;2023-11-19T04:36:12;40.13;;;7.50;;
76292;SDS011;67256;51.154;4.164;2023-11-19T04:38:39;31.58;;;7.00;;
76292;SDS011;67256;51.154;4.164;2023-11-19T04:41:05;35.92;;;7.53;;
76292;SDS011;67256;51.154;4.164;2023-11-19T04:43:31;44.92;;;7.32;;
76292;SDS011;67256;51.154;4.164;2023-11-19T04:45:58;42.65;;;6.85;;
76292;SDS011;67256;51.154;4.164;2023-11-19T04:48:23;53.60;;;8.27;;
76292;SDS011;67256;51.154;4.164;2023-11-19T04:50:49;49.55;;;7.47;;
76292;SDS011;67256;51.154;4.164;2023-11-19T04:53:19;41.22;;;7.15;;
76292;SDS011;67256;51.154;4.164;2023-11-19T04:55:45;43.05;;;7.30;;
76292;SDS011;67256;51.154;4.164;2023-11-19T04:58:10;38.03;;;8.43;;
76292;SDS011;67256;51.154;4.164;2023-11-19T05:00:36;48.67;;;8.18;;
76292;SDS011;67256;51.154;4.164;2023-11-19T05:03:02;42.15;;;9.13;;
76292;SDS011;67256;51.154;4.164;2023-11-19T05:05:28;46.17;;;7.82;;
76292;SDS011;67256;51.154;4.164;2023-11-19T05:07:54;38.00;;;7.47;;
76292;SDS011;67256;51.154;4.164;2023-11-19T05:10:21;35.22;;;7.60;;
76292;SDS011;67256;51.154;4.164;2023-11-19T05:12:47;31.73;;;6.32;;
76292;SDS011;67256;51.154;4.164;2023-11-19T05:15:12;42.92;;;7.55;;
76292;SDS011;67256;51.154;4.164;2023-11-19T05:17:39;40.78;;;7.18;;
76292;SDS011;67256;51.154;4.164;2023-11-19T05:20:05;44.67;;;8.05;;
76292;SDS011;67256;51.154;4.164;2023-11-19T05:22:38;40.53;;;7.30;;
76292;SDS011;67256;51.154;4.164;2023-11-19T05:27:34;47.00;;;7.85;;
76292;SDS011;67256;51.154;4.164;2023-11-19T05:30:01;39.72;;;7.55;;
76292;SDS011;67256;51.154;4.164;2023-11-19T05:32:28;40.60;;;7.53;;
76292;SDS011;67256;51.154;4.164;2023-11-19T05:34:53;37.78;;;7.32;;
76292;SDS011;67256;51.154;4.164;2023-11-19T05:37:19;39.72;;;8.98;;
76292;SDS011;67256;51.154;4.164;2023-11-19T05:39:45;43.78;;;8.02;;
76292;SDS011;67256;51.154;4.164;2023-11-19T05:42:11;46.28;;;7.88;;
76292;SDS011;67256;51.154;4.164;2023-11-19T05:44:37;41.67;;;7.45;;
76292;SDS011;67256;51.154;4.164;2023-11-19T05:47:03;53.38;;;8.15;;
76292;SDS011;67256;51.154;4.164;2023-11-19T05:49:29;37.85;;;7.68;;
76292;SDS011;67256;51.154;4.164;2023-11-19T05:51:55;41.92;;;7.90;;
76292;SDS011;67256;51.154;4.164;2023-11-19T05:54:21;41.90;;;7.72;;
76292;SDS011;67256;51.154;4.164;2023-11-19T05:56:48;42.33;;;7.30;;
76292;SDS011;67256;51.154;4.164;2023-11-19T05:59:19;36.83;;;6.55;;
76292;SDS011;67256;51.154;4.164;2023-11-19T06:01:45;35.63;;;7.95;;
76292;SDS011;67256;51.154;4.164;2023-11-19T06:04:11;40.80;;;7.30;;
76292;SDS011;67256;51.154;4.164;2023-11-19T06:06:38;46.00;;;8.68;;
76292;SDS011;67256;51.154;4.164;2023-11-19T06:09:05;39.60;;;7.80;;
76292;SDS011;67256;51.154;4.164;2023-11-19T06:11:33;44.40;;;7.20;;
76292;SDS011;67256;51.154;4.164;2023-11-19T06:13:59;33.05;;;6.07;;
76292;SDS011;67256;51.154;4.164;2023-11-19T06:16:25;39.95;;;7.05;;
76292;SDS011;67256;51.154;4.164;2023-11-19T06:18:51;36.88;;;6.10;;
76292;SDS011;67256;51.154;4.164;2023-11-19T06:21:18;40.33;;;6.60;;
76292;SDS011;67256;51.154;4.164;2023-11-19T06:23:44;44.53;;;9.27;;
76292;SDS011;67256;51.154;4.164;2023-11-19T06:26:10;45.70;;;9.23;;
76292;SDS011;67256;51.154;4.164;2023-11-19T06:28:36;46.88;;;6.93;;
76292;SDS011;67256;51.154;4.164;2023-11-19T06:31:03;41.80;;;7.72;;
76292;SDS011;67256;51.154;4.164;2023-11-19T06:33:29;45.20;;;8.55;;
76292;SDS011;67256;51.154;4.164;2023-11-19T06:35:55;34.85;;;6.50;;
76292;SDS011;67256;51.154;4.164;2023-11-19T06:38:21;60.88;;;9.40;;
76292;SDS011;67256;51.154;4.164;2023-11-19T06:40:46;37.60;;;7.10;;
76292;SDS011;67256;51.154;4.164;2023-11-19T06:43:12;42.88;;;7.72;;
76292;SDS011;67256;51.154;4.164;2023-11-19T06:45:39;45.42;;;8.40;;
76292;SDS011;67256;51.154;4.164;2023-11-19T06:48:05;40.17;;;7.40;;
76292;SDS011;67256;51.154;4.164;2023-11-19T06:50:31;41.90;;;8.77;;
76292;SDS011;67256;51.154;4.164;2023-11-19T06:52:57;40.25;;;7.50;;
76292;SDS011;67256;51.154;4.164;2023-11-19T06:55:24;42.22;;;7.13;;
76292;SDS011;67256;51.154;4.164;2023-11-19T06:57:49;39.88;;;8.77;;
76292;SDS011;67256;51.154;4.164;2023-11-19T07:00:15;32.78;;;7.63;;
76292;SDS011;67256;51.154;4.164;2023-11-19T07:02:42;37.63;;;8.52;;
76292;SDS011;67256;51.154;4.164;2023-11-19T07:05:09;48.58;;;7.95;;
76292;SDS011;67256;51.154;4.164;2023-11-19T07:07:37;40.42;;;7.60;;
76292;SDS011;67256;51.154;4.164;2023-11-19T07:10:03;45.70;;;9.18;;
76292;SDS011;67256;51.154;4.164;2023-11-19T07:12:30;39.40;;;7.15;;
76292;SDS011;67256;51.154;4.164;2023-11-19T07:14:56;44.85;;;8.05;;
76292;SDS011;67256;51.154;4.164;2023-11-19T07:17:22;35.50;;;7.53;;
76292;SDS011;67256;51.154;4.164;2023-11-19T07:19:49;51.08;;;8.63;;
76292;SDS011;67256;51.154;4.164;2023-11-19T07:22:16;46.85;;;7.00;;
76292;SDS011;67256;51.154;4.164;2023-11-19T07:24:43;46.25;;;8.15;;
76292;SDS011;67256;51.154;4.164;2023-11-19T07:27:08;52.05;;;7.90;;
76292;SDS011;67256;51.154;4.164;2023-11-19T07:29:37;35.25;;;7.47;;
76292;SDS011;67256;51.154;4.164;2023-11-19T07:32:03;46.80;;;6.72;;
76292;SDS011;67256;51.154;4.164;2023-11-19T07:34:30;42.47;;;9.20;;
76292;SDS011;67256;51.154;4.164;2023-11-19T07:36:55;43.72;;;7.47;;
76292;SDS011;67256;51.154;4.164;2023-11-19T07:39:27;36.80;;;6.65;;
76292;SDS011;67256;51.154;4.164;2023-11-19T07:41:56;38.63;;;6.93;;
76292;SDS011;67256;51.154;4.164;2023-11-19T07:44:21;36.00;;;7.25;;
76292;SDS011;67256;51.154;4.164;2023-11-19T07:46:47;36.85;;;7.75;;
76292;SDS011;67256;51.154;4.164;2023-11-19T07:49:13;49.78;;;8.60;;
76292;SDS011;67256;51.154;4.164;2023-11-19T07:51:39;41.85;;;7.00;;
76292;SDS011;67256;51.154;4.164;2023-11-19T07:54:06;46.92;;;7.75;;
76292;SDS011;67256;51.154;4.164;2023-11-19T07:56:33;49.28;;;9.13;;
76292;SDS011;67256;51.154;4.164;2023-11-19T07:59:02;49.45;;;9.05;;
76292;SDS011;67256;51.154;4.164;2023-11-19T08:01:28;43.58;;;8.63;;
76292;SDS011;67256;51.154;4.164;2023-11-19T08:03:54;34.30;;;7.75;;
76292;SDS011;67256;51.154;4.164;2023-11-19T08:06:20;43.90;;;7.60;;
76292;SDS011;67256;51.154;4.164;2023-11-19T08:08:46;30.85;;;7.10;;
76292;SDS011;67256;51.154;4.164;2023-11-19T08:11:13;39.65;;;7.75;;
76292;SDS011;67256;51.154;4.164;2023-11-19T08:13:40;32.33;;;7.95;;
76292;SDS011;67256;51.154;4.164;2023-11-19T08:16:06;40.33;;;7.93;;
76292;SDS011;67256;51.154;4.164;2023-11-19T08:18:32;43.53;;;7.15;;
76292;SDS011;67256;51.154;4.164;2023-11-19T08:20:57;39.47;;;7.55;;
76292;SDS011;67256;51.154;4.164;2023-11-19T08:23:24;46.90;;;9.13;;
76292;SDS011;67256;51.154;4.164;2023-11-19T08:25:50;42.70;;;9.23;;
76292;SDS011;67256;51.154;4.164;2023-11-19T08:28:17;37.97;;;6.40;;
76292;SDS011;67256;51.154;4.164;2023-11-19T08:30:43;47.92;;;8.05;;
76292;SDS011;67256;51.154;4.164;2023-11-19T08:33:09;39.08;;;8.23;;
76292;SDS011;67256;51.154;4.164;2023-11-19T08:35:36;39.13;;;7.93;;
76292;SDS011;67256;51.154;4.164;2023-11-19T08:38:02;48.70;;;9.95;;
76292;SDS011;67256;51.154;4.164;2023-11-19T08:40:28;40.88;;;8.02;;
76292;SDS011;67256;51.154;4.164;2023-11-19T08:42:57;42.50;;;7.77;;
76292;SDS011;67256;51.154;4.164;2023-11-19T08:45:24;39.92;;;7.53;;
76292;SDS011;67256;51.154;4.164;2023-11-19T08:47:50;33.97;;;7.45;;
76292;SDS011;67256;51.154;4.164;2023-11-19T08:50:16;43.00;;;8.27;;
76292;SDS011;67256;51.154;4.164;2023-11-19T08:52:42;39.10;;;7.60;;
76292;SDS011;67256;51.154;4.164;2023-11-19T08:55:07;35.28;;;6.97;;
76292;SDS011;67256;51.154;4.164;2023-11-19T08:57:35;36.22;;;7.68;;
76292;SDS011;67256;51.154;4.164;2023-11-19T09:00:01;46.88;;;7.90;;
76292;SDS011;67256;51.154;4.164;2023-11-19T09:02:32;38.75;;;8.88;;
76292;SDS011;67256;51.154;4.164;2023-11-19T09:04:59;39.10;;;7.75;;
76292;SDS011;67256;51.154;4.164;2023-11-19T09:07:24;41.08;;;7.53;;
76292;SDS011;67256;51.154;4.164;2023-11-19T09:09:50;38.20;;;6.35;;
76292;SDS011;67256;51.154;4.164;2023-11-19T09:12:17;41.42;;;8.68;;
76292;SDS011;67256;51.154;4.164;2023-11-19T09:14:42;40.92;;;6.55;;
76292;SDS011;67256;51.154;4.164;2023-11-19T09:17:08;34.92;;;6.07;;
76292;SDS011;67256;51.154;4.164;2023-11-19T09:19:35;39.65;;;8.90;;
76292;SDS011;67256;51.154;4.164;2023-11-19T09:22:01;35.88;;;7.35;;
76292;SDS011;67256;51.154;4.164;2023-11-19T09:24:27;36.10;;;7.90;;
76292;SDS011;67256;51.154;4.164;2023-11-19T09:26:54;36.22;;;7.03;;
76292;SDS011;67256;51.154;4.164;2023-11-19T09:29:21;35.83;;;6.53;;
76292;SDS011;67256;51.154;4.164;2023-11-19T09:31:47;39.65;;;6.25;;
76292;SDS011;67256;51.154;4.164;2023-11-19T09:34:13;29.02;;;6.85;;
76292;SDS011;67256;51.154;4.164;2023-11-19T09:36:39;41.78;;;7.53;;
76292;SDS011;67256;51.154;4.164;2023-11-19T09:39:09;31.02;;;8.18;;
76292;SDS011;67256;51.154;4.164;2023-11-19T09:41:35;32.38;;;6.55;;
76292;SDS011;67256;51.154;4.164;2023-11-19T09:44:01;36.58;;;6.95;;
76292;SDS011;67256;51.154;4.164;2023-11-19T09:46:27;36.53;;;8.10;;
76292;SDS011;67256;51.154;4.164;2023-11-19T09:48:54;36.60;;;6.30;;
76292;SDS011;67256;51.154;4.164;2023-11-19T09:51:22;30.38;;;7.10;;
76292;SDS011;67256;51.154;4.164;2023-11-19T09:53:49;34.92;;;7.22;;
76292;SDS011;67256;51.154;4.164;2023-11-19T09:56:16;30.73;;;6.03;;
76292;SDS011;67256;51.154;4.164;2023-11-19T09:58:42;41.22;;;7.03;;
76292;SDS011;67256;51.154;4.164;2023-11-19T10:01:08;31.17;;;5.35;;
76292;SDS011;67256;51.154;4.164;2023-11-19T10:03:37;31.50;;;6.20;;
76292;SDS011;67256;51.154;4.164;2023-11-19T10:06:08;30.35;;;6.25;;
76292;SDS011;67256;51.154;4.164;2023-11-19T10:08:39;27.92;;;5.65;;
76292;SDS011;67256;51.154;4.164;2023-11-19T10:11:06;26.15;;;7.00;;
76292;SDS011;67256;51.154;4.164;2023-11-19T10:13:35;28.25;;;5.63;;
76292;SDS011;67256;51.154;4.164;2023-11-19T10:16:08;28.83;;;5.88;;
76292;SDS011;67256;51.154;4.164;2023-11-19T10:18:36;28.23;;;5.32;;
76292;SDS011;67256;51.154;4.164;2023-11-19T10:21:04;29.55;;;5.82;;
76292;SDS011;67256;51.154;4.164;2023-11-19T10:23:31;27.92;;;6.38;;
76292;SDS011;67256;51.154;4.164;2023-11-19T10:26:03;31.17;;;6.20;;
76292;SDS011;67256;51.154;4.164;2023-11-19T10:28:40;32.97;;;7.15;;
76292;SDS011;67256;51.154;4.164;2023-11-19T10:31:11;25.55;;;6.53;;
76292;SDS011;67256;51.154;4.164;2023-11-19T10:33:41;29.50;;;5.45;;
76292;SDS011;67256;51.154;4.164;2023-11-19T10:36:08;29.48;;;6.47;;
76292;SDS011;67256;51.154;4.164;2023-11-19T10:38:34;27.92;;;5.78;;
76292;SDS011;67256;51.154;4.164;2023-11-19T10:41:00;30.45;;;6.05;;
76292;SDS011;67256;51.154;4.164;2023-11-19T10:43:26;23.83;;;5.22;;
76292;SDS011;67256;51.154;4.164;2023-11-19T10:45:53;28.45;;;6.95;;
76292;SDS011;67256;51.154;4.164;2023-11-19T10:48:19;32.75;;;6.10;;
76292;SDS011;67256;51.154;4.164;2023-11-19T10:50:46;31.08;;;6.80;;
76292;SDS011;67256;51.154;4.164;2023-11-19T10:53:19;25.80;;;4.97;;
76292;SDS011;67256;51.154;4.164;2023-11-19T10:55:47;32.55;;;6.00;;
76292;SDS011;67256;51.154;4.164;2023-11-19T10:58:15;32.45;;;7.88;;
76292;SDS011;67256;51.154;4.164;2023-11-19T11:00:45;30.65;;;5.93;;
76292;SDS011;67256;51.154;4.164;2023-11-19T11:03:17;35.05;;;6.10;;
76292;SDS011;67256;51.154;4.164;2023-11-19T11:05:48;30.45;;;5.43;;
76292;SDS011;67256;51.154;4.164;2023-11-19T11:08:15;25.40;;;5.40;;
76292;SDS011;67256;51.154;4.164;2023-11-19T11:10:47;25.73;;;5.55;;
76292;SDS011;67256;51.154;4.164;2023-11-19T11:13:20;33.00;;;5.50;;
76292;SDS011;67256;51.154;4.164;2023-11-19T11:15:51;27.05;;;5.97;;
76292;SDS011;67256;51.154;4.164;2023-11-19T11:18:19;36.00;;;6.53;;
76292;SDS011;67256;51.154;4.164;2023-11-19T11:20:45;28.35;;;6.95;;
76292;SDS011;67256;51.154;4.164;2023-11-19T11:39:27;26.85;;;5.88;;
76292;SDS011;67256;51.154;4.164;2023-11-19T11:42:54;27.88;;;5.35;;
76292;SDS011;67256;51.154;4.164;2023-11-19T11:45:09;28.67;;;5.97;;
76292;SDS011;67256;51.154;4.164;2023-11-19T11:50:08;26.80;;;4.40;;
76292;SDS011;67256;51.154;4.164;2023-11-19T11:58:07;28.42;;;6.53;;
76292;SDS011;67256;51.154;4.164;2023-11-19T12:00:37;34.50;;;5.95;;
76292;SDS011;67256;51.154;4.164;2023-11-19T12:03:05;30.73;;;7.00;;
76292;SDS011;67256;51.154;4.164;2023-11-19T12:05:32;22.55;;;4.90;;
76292;SDS011;67256;51.154;4.164;2023-11-19T12:08:10;30.73;;;6.32;;
76292;SDS011;67256;51.154;4.164;2023-11-19T12:10:49;34.47;;;6.45;;
76292;SDS011;67256;51.154;4.164;2023-11-19T12:13:17;33.55;;;6.45;;
76292;SDS011;67256;51.154;4.164;2023-11-19T12:18:28;33.20;;;7.63;;
76292;SDS011;67256;51.154;4.164;2023-11-19T12:20:58;25.42;;;5.90;;
76292;SDS011;67256;51.154;4.164;2023-11-19T12:25:57;23.50;;;5.93;;
76292;SDS011;67256;51.154;4.164;2023-11-19T12:28:23;28.58;;;5.28;;
76292;SDS011;67256;51.154;4.164;2023-11-19T12:30:51;27.48;;;6.78;;
76292;SDS011;67256;51.154;4.164;2023-11-19T12:33:18;26.98;;;5.72;;
76292;SDS011;67256;51.154;4.164;2023-11-19T12:35:47;25.30;;;6.00;;
76292;SDS011;67256;51.154;4.164;2023-11-19T12:38:20;29.38;;;6.68;;
76292;SDS011;67256;51.154;4.164;2023-11-19T12:40:46;39.10;;;7.22;;
76292;SDS011;67256;51.154;4.164;2023-11-19T12:43:21;28.08;;;6.63;;
76292;SDS011;67256;51.154;4.164;2023-11-19T12:45:47;25.83;;;5.78;;
76292;SDS011;67256;51.154;4.164;2023-11-19T12:48:14;29.90;;;6.35;;
76292;SDS011;67256;51.154;4.164;2023-11-19T12:50:56;29.00;;;7.13;;
76292;SDS011;67256;51.154;4.164;2023-11-19T12:53:23;27.65;;;6.60;;
76292;SDS011;67256;51.154;4.164;2023-11-19T12:55:51;23.02;;;5.57;;
76292;SDS011;67256;51.154;4.164;2023-11-19T12:58:30;24.70;;;5.05;;
76292;SDS011;67256;51.154;4.164;2023-11-19T13:01:03;29.35;;;5.47;;
76292;SDS011;67256;51.154;4.164;2023-11-19T13:03:34;27.88;;;5.45;;
76292;SDS011;67256;51.154;4.164;2023-11-19T13:06:02;32.05;;;6.20;;
76292;SDS011;67256;51.154;4.164;2023-11-19T13:11:04;31.02;;;6.60;;
76292;SDS011;67256;51.154;4.164;2023-11-19T13:13:32;23.00;;;5.15;;
76292;SDS011;67256;51.154;4.164;2023-11-19T13:16:04;23.05;;;5.07;;
76292;SDS011;67256;51.154;4.164;2023-11-19T13:18:34;24.88;;;5.43;;
76292;SDS011;67256;51.154;4.164;2023-11-19T13:21:00;24.35;;;5.65;;
76292;SDS011;67256;51.154;4.164;2023-11-19T13:23:26;26.73;;;5.60;;
76292;SDS011;67256;51.154;4.164;2023-11-19T13:25:52;26.00;;;4.68;;
76292;SDS011;67256;51.154;4.164;2023-11-19T13:28:18;25.90;;;5.32;;
76292;SDS011;67256;51.154;4.164;2023-11-19T13:30:43;28.55;;;6.00;;
76292;SDS011;67256;51.154;4.164;2023-11-19T13:33:09;32.55;;;5.70;;
76292;SDS011;67256;51.154;4.164;2023-11-19T13:35:37;29.70;;;5.70;;
76292;SDS011;67256;51.154;4.164;2023-11-19T13:38:05;28.80;;;5.25;;
76292;SDS011;67256;51.154;4.164;2023-11-19T13:40:33;24.98;;;5.03;;
76292;SDS011;67256;51.154;4.164;2023-11-19T13:42:59;30.88;;;5.65;;
76292;SDS011;67256;51.154;4.164;2023-11-19T13:45:25;23.80;;;5.13;;
76292;SDS011;67256;51.154;4.164;2023-11-19T13:47:51;23.15;;;5.07;;
76292;SDS011;67256;51.154;4.164;2023-11-19T13:50:17;23.55;;;5.85;;
76292;SDS011;67256;51.154;4.164;2023-11-19T13:52:43;30.27;;;5.13;;
76292;SDS011;67256;51.154;4.164;2023-11-19T13:55:11;31.48;;;5.85;;
76292;SDS011;67256;51.154;4.164;2023-11-19T13:57:37;25.52;;;6.57;;
76292;SDS011;67256;51.154;4.164;2023-11-19T14:00:04;28.65;;;5.20;;
76292;SDS011;67256;51.154;4.164;2023-11-19T14:02:35;30.13;;;5.97;;
76292;SDS011;67256;51.154;4.164;2023-11-19T14:05:01;26.60;;;5.25;;
76292;SDS011;67256;51.154;4.164;2023-11-19T14:07:27;25.90;;;5.22;;
76292;SDS011;67256;51.154;4.164;2023-11-19T14:09:53;31.85;;;6.57;;
76292;SDS011;67256;51.154;4.164;2023-11-19T14:12:19;28.65;;;5.80;;
76292;SDS011;67256;51.154;4.164;2023-11-19T14:14:45;26.55;;;5.72;;
76292;SDS011;67256;51.154;4.164;2023-11-19T14:17:11;30.92;;;7.97;;
76292;SDS011;67256;51.154;4.164;2023-11-19T14:19:37;34.03;;;7.07;;
76292;SDS011;67256;51.154;4.164;2023-11-19T14:22:04;27.85;;;6.50;;
76292;SDS011;67256;51.154;4.164;2023-11-19T14:24:31;24.48;;;5.93;;
76292;SDS011;67256;51.154;4.164;2023-11-19T14:26:56;35.70;;;6.13;;
76292;SDS011;67256;51.154;4.164;2023-11-19T14:29:26;32.63;;;6.28;;
76292;SDS011;67256;51.154;4.164;2023-11-19T14:31:53;29.73;;;5.82;;
76292;SDS011;67256;51.154;4.164;2023-11-19T14:34:20;26.25;;;5.55;;
76292;SDS011;67256;51.154;4.164;2023-11-19T14:36:46;26.67;;;5.50;;
76292;SDS011;67256;51.154;4.164;2023-11-19T14:39:12;20.60;;;5.00;;
76292;SDS011;67256;51.154;4.164;2023-11-19T14:41:38;25.92;;;5.95;;
76292;SDS011;67256;51.154;4.164;2023-11-19T14:44:04;28.60;;;5.13;;
76292;SDS011;67256;51.154;4.164;2023-11-19T14:46:31;24.15;;;6.80;;
76292;SDS011;67256;51.154;4.164;2023-11-19T14:48:57;25.52;;;4.97;;
76292;SDS011;67256;51.154;4.164;2023-11-19T14:51:22;26.65;;;5.30;;
76292;SDS011;67256;51.154;4.164;2023-11-19T14:53:48;29.48;;;5.47;;
76292;SDS011;67256;51.154;4.164;2023-11-19T14:56:14;23.08;;;6.70;;
76292;SDS011;67256;51.154;4.164;2023-11-19T14:58:39;28.67;;;5.22;;
76292;SDS011;67256;51.154;4.164;2023-11-19T15:01:05;25.70;;;5.47;;
76292;SDS011;67256;51.154;4.164;2023-11-19T15:03:32;22.20;;;5.60;;
76292;SDS011;67256;51.154;4.164;2023-11-19T15:05:58;30.45;;;6.63;;
76292;SDS011;67256;51.154;4.164;2023-11-19T15:08:24;28.83;;;6.03;;
76292;SDS011;67256;51.154;4.164;2023-11-19T15:10:50;28.48;;;6.13;;